createdAt,value
2022-10-18T00:01:03.547Z,12.09
2022-10-18T00:03:32.200Z,11.91
2022-10-18T00:06:00.019Z,11.97
2022-10-18T00:08:28.115Z,11.83
2022-10-18T00:10:56.181Z,11.86
2022-10-18T00:13:23.975Z,11.85
2022-10-18T00:15:57.128Z,11.80
2022-10-18T00:18:24.966Z,11.75
2022-10-18T00:21:04.590Z,11.83
2022-10-18T00:23:33.046Z,11.87
2022-10-18T00:26:03.532Z,11.99
2022-10-18T00:28:31.810Z,11.92
2022-10-18T00:31:10.575Z,11.77
2022-10-18T00:33:38.460Z,11.77
2022-10-18T00:36:06.679Z,11.80
2022-10-18T00:38:34.489Z,11.81
2022-10-18T00:41:02.192Z,11.79
2022-10-18T00:43:30.050Z,11.75
2022-10-18T00:45:57.620Z,11.72
2022-10-18T00:48:25.282Z,11.71
2022-10-18T00:50:53.410Z,11.78
2022-10-18T00:53:22.913Z,11.77
2022-10-18T00:55:50.899Z,11.68
2022-10-18T00:58:19.389Z,11.73
2022-10-18T01:00:47.321Z,11.79
2022-10-18T01:03:14.943Z,11.72
2022-10-18T01:05:45.473Z,11.65
2022-10-18T01:08:15.900Z,11.64
2022-10-18T01:10:51.554Z,11.63
2022-10-18T01:13:31.004Z,11.58
2022-10-18T01:16:24.391Z,11.55
2022-10-18T01:19:22.024Z,11.54
2022-10-18T01:21:52.935Z,11.59
2022-10-18T01:24:49.107Z,11.50
2022-10-18T01:27:26.141Z,11.55
2022-10-18T01:30:31.356Z,11.52
2022-10-18T01:33:10.906Z,11.64
2022-10-18T01:35:42.200Z,11.69
2022-10-18T01:38:13.583Z,11.60
2022-10-18T01:40:41.086Z,11.61
2022-10-18T01:43:09.682Z,11.65
2022-10-18T01:45:37.539Z,11.60
2022-10-18T01:48:05.591Z,11.61
2022-10-18T01:50:35.034Z,11.58
2022-10-18T01:53:02.912Z,11.51
2022-10-18T01:55:44.208Z,11.47
2022-10-18T01:58:21.163Z,11.57
2022-10-18T02:00:50.992Z,11.50
2022-10-18T02:03:23.748Z,11.47
2022-10-18T02:06:20.729Z,11.42
2022-10-18T02:09:04.236Z,11.53
2022-10-18T02:11:33.156Z,11.54
2022-10-18T02:14:08.523Z,11.39
2022-10-18T02:16:39.696Z,11.38
2022-10-18T02:19:16.182Z,11.38
2022-10-18T02:21:45.671Z,11.29
2022-10-18T02:24:14.795Z,11.29
2022-10-18T02:26:42.548Z,11.26
2022-10-18T02:29:10.313Z,11.29
2022-10-18T02:31:49.222Z,11.28
2022-10-18T02:34:21.762Z,11.18
2022-10-18T02:36:55.544Z,11.19
2022-10-18T02:39:35.071Z,11.16
2022-10-18T02:42:05.210Z,11.12
2022-10-18T02:44:36.435Z,11.12
2022-10-18T02:47:05.876Z,11.11
2022-10-18T02:49:33.888Z,11.02
2022-10-18T02:52:01.541Z,11.10
2022-10-18T02:54:29.338Z,11.15
2022-10-18T02:56:57.033Z,11.04
2022-10-18T02:59:24.632Z,11.06
2022-10-18T03:01:52.783Z,11.06
2022-10-18T03:04:20.795Z,11.10
2022-10-18T03:06:48.477Z,10.98
2022-10-18T03:09:16.387Z,10.91
2022-10-18T03:11:43.952Z,11.13
2022-10-18T03:14:11.608Z,11.06
2022-10-18T03:16:39.552Z,10.95
2022-10-18T03:19:07.467Z,10.83
2022-10-18T03:21:35.687Z,10.85
2022-10-18T03:24:04.736Z,10.92
2022-10-18T03:26:32.448Z,10.88
2022-10-18T03:29:00.140Z,10.93
2022-10-18T03:31:28.676Z,10.86
2022-10-18T03:33:56.303Z,10.93
2022-10-18T03:36:23.903Z,10.80
2022-10-18T03:38:51.843Z,10.74
2022-10-18T03:41:19.585Z,10.87
2022-10-18T03:43:47.343Z,10.73
2022-10-18T03:46:15.436Z,10.75
2022-10-18T03:48:42.987Z,10.67
2022-10-18T03:51:10.748Z,10.64
2022-10-18T03:53:56.441Z,10.73
2022-10-18T03:56:24.293Z,10.62
2022-10-18T03:58:52.149Z,10.65
2022-10-18T04:01:19.866Z,10.72
2022-10-18T04:03:47.869Z,10.62
2022-10-18T04:06:15.475Z,10.68
2022-10-18T04:08:42.995Z,10.57
2022-10-18T04:11:10.859Z,10.56
2022-10-18T04:13:38.777Z,10.69
2022-10-18T04:16:06.566Z,10.57
2022-10-18T04:18:34.838Z,10.54
2022-10-18T04:21:02.607Z,10.56
2022-10-18T04:23:31.836Z,10.69
2022-10-18T04:26:03.051Z,10.61
2022-10-18T04:28:30.942Z,10.64
2022-10-18T04:30:58.572Z,10.63
2022-10-18T04:33:26.777Z,10.52
2022-10-18T04:35:54.604Z,10.50
2022-10-18T04:38:22.231Z,10.44
2022-10-18T04:40:50.143Z,10.44
2022-10-18T04:43:17.681Z,10.38
2022-10-18T04:45:46.277Z,10.43
2022-10-18T04:48:15.004Z,10.40
2022-10-18T04:50:42.621Z,10.34
2022-10-18T04:53:15.775Z,10.39
2022-10-18T04:55:53.361Z,10.33
2022-10-18T04:58:21.257Z,10.27
2022-10-18T05:00:49.342Z,10.25
2022-10-18T05:03:17.148Z,10.23
2022-10-18T05:06:00.746Z,10.20
2022-10-18T05:08:30.028Z,10.13
2022-10-18T05:10:58.021Z,10.16
2022-10-18T05:13:26.166Z,10.23
2022-10-18T05:15:53.731Z,10.21
2022-10-18T05:18:21.697Z,10.24
2022-10-18T05:20:49.857Z,10.21
2022-10-18T05:23:17.570Z,10.28
2022-10-18T05:25:46.304Z,10.19
2022-10-18T05:28:38.803Z,10.24
2022-10-18T05:31:03.209Z,10.16
2022-10-18T05:33:31.124Z,10.18
2022-10-18T05:35:58.971Z,10.19
2022-10-18T05:38:27.278Z,10.13
2022-10-18T05:40:55.025Z,10.22
2022-10-18T05:43:22.791Z,10.24
2022-10-18T05:45:51.205Z,10.21
2022-10-18T05:48:18.894Z,10.22
2022-10-18T05:50:46.875Z,10.18
2022-10-18T05:53:35.349Z,10.15
2022-10-18T05:56:02.763Z,10.15
2022-10-18T05:58:30.661Z,10.22
2022-10-18T06:00:59.944Z,10.15
2022-10-18T06:03:28.187Z,10.16
2022-10-18T06:06:03.415Z,10.21
2022-10-18T06:08:31.954Z,10.25
2022-10-18T06:10:59.597Z,10.29
2022-10-18T06:13:29.099Z,10.40
2022-10-18T06:15:59.202Z,10.35
2022-10-18T06:18:27.222Z,10.47
2022-10-18T06:20:58.595Z,10.58
2022-10-18T06:23:29.819Z,10.79
2022-10-18T06:26:01.964Z,10.91
2022-10-18T06:28:30.089Z,11.15
2022-10-18T06:30:58.124Z,11.16
2022-10-18T06:33:25.811Z,11.27
2022-10-18T06:36:00.313Z,11.52
2022-10-18T06:38:29.197Z,11.65
2022-10-18T06:40:57.798Z,11.73
2022-10-18T06:43:26.132Z,11.88
2022-10-18T06:45:54.416Z,12.09
2022-10-18T06:48:24.280Z,12.14
2022-10-18T06:50:56.641Z,12.09
2022-10-18T06:53:25.805Z,12.09
2022-10-18T06:55:53.773Z,12.25
2022-10-18T06:58:21.288Z,12.33
2022-10-18T07:00:49.219Z,12.35
2022-10-18T07:03:16.831Z,12.50
2022-10-18T07:05:44.459Z,12.70
2022-10-18T07:08:12.460Z,12.70
2022-10-18T07:10:40.225Z,12.84
2022-10-18T07:13:30.802Z,12.78
2022-10-18T07:16:05.734Z,13.06
2022-10-18T07:18:34.949Z,13.16
2022-10-18T07:21:08.474Z,13.38
2022-10-18T07:23:39.212Z,13.66
2022-10-18T07:26:13.088Z,13.94
2022-10-18T07:28:42.288Z,14.03
2022-10-18T07:31:11.386Z,13.99
2022-10-18T07:33:39.462Z,13.95
2022-10-18T07:36:08.507Z,14.02
2022-10-18T07:38:36.673Z,14.37
2022-10-18T07:41:05.831Z,14.14
2022-10-18T07:43:34.105Z,14.20
2022-10-18T07:46:04.595Z,14.51
2022-10-18T07:48:32.398Z,14.41
2022-10-18T07:51:00.810Z,14.42
2022-10-18T07:53:30.005Z,14.73
2022-10-18T07:56:04.564Z,14.69
2022-10-18T07:58:35.135Z,14.59
2022-10-18T08:01:07.111Z,14.64
2022-10-18T08:03:36.139Z,15.04
2022-10-18T08:06:04.113Z,14.97
2022-10-18T08:08:31.656Z,14.67
2022-10-18T08:11:05.290Z,15.16
2022-10-18T08:13:32.937Z,15.21
2022-10-18T08:16:09.328Z,15.09
2022-10-18T08:18:37.559Z,14.92
2022-10-18T08:21:07.495Z,15.27
2022-10-18T08:23:35.325Z,15.46
2022-10-18T08:26:08.483Z,15.58
2022-10-18T08:28:36.952Z,15.68
2022-10-18T08:31:06.659Z,15.78
2022-10-18T08:33:34.435Z,16.06
2022-10-18T08:36:04.485Z,16.07
2022-10-18T08:38:35.569Z,16.19
2022-10-18T08:41:34.390Z,16.37
2022-10-18T08:44:20.605Z,16.55
2022-10-18T08:46:50.702Z,16.66
2022-10-18T08:49:40.854Z,16.92
2022-10-18T08:52:16.710Z,16.86
2022-10-18T08:54:55.212Z,16.47
2022-10-18T08:57:27.858Z,16.70
2022-10-18T08:59:55.838Z,16.80
2022-10-18T09:02:46.210Z,17.34
2022-10-18T09:05:17.438Z,17.71
2022-10-18T09:08:39.470Z,17.41
2022-10-18T09:11:24.781Z,17.97
2022-10-18T09:14:24.613Z,17.66
2022-10-18T09:16:54.723Z,17.91
2022-10-18T09:19:42.507Z,18.35
2022-10-18T09:22:18.695Z,18.25
2022-10-18T09:25:02.646Z,18.06
2022-10-18T09:28:03.992Z,18.43
2022-10-18T09:30:45.670Z,18.79
2022-10-18T09:33:19.271Z,19.14
2022-10-18T09:35:58.836Z,19.01
2022-10-18T09:38:29.762Z,18.92
2022-10-18T09:41:40.737Z,18.73
2022-10-18T09:44:15.915Z,18.92
2022-10-18T09:46:47.962Z,18.94
2022-10-18T09:49:22.359Z,19.21
2022-10-18T09:51:52.220Z,19.22
2022-10-18T09:54:24.700Z,19.54
2022-10-18T09:57:03.051Z,19.68
2022-10-18T09:59:41.076Z,19.77
2022-10-18T10:02:19.953Z,19.72
2022-10-18T10:04:48.658Z,19.62
2022-10-18T10:07:29.950Z,19.44
2022-10-18T10:10:13.075Z,19.76
2022-10-18T10:12:43.329Z,20.10
2022-10-18T10:15:22.651Z,20.07
2022-10-18T10:17:58.518Z,20.08
2022-10-18T10:20:30.168Z,20.37
2022-10-18T10:23:06.216Z,20.80
2022-10-18T10:25:37.776Z,21.09
2022-10-18T10:28:12.165Z,20.86
2022-10-18T10:30:40.113Z,20.85
2022-10-18T10:33:37.488Z,20.83
2022-10-18T10:36:15.183Z,20.90
2022-10-18T10:38:42.827Z,20.68
2022-10-18T10:41:21.240Z,20.74
2022-10-18T10:43:50.036Z,21.19
2022-10-18T10:46:19.479Z,21.83
2022-10-18T10:48:47.446Z,20.96
2022-10-18T10:51:18.420Z,20.83
2022-10-18T10:53:51.321Z,21.44
2022-10-18T10:56:25.466Z,21.51
2022-10-18T10:58:54.748Z,21.18
2022-10-18T11:01:32.215Z,21.19
2022-10-18T11:04:23.428Z,21.41
2022-10-18T11:07:09.327Z,21.22
2022-10-18T11:09:37.759Z,21.32
2022-10-18T11:12:11.848Z,21.23
2022-10-18T11:14:43.115Z,21.66
2022-10-18T11:17:34.467Z,21.78
2022-10-18T11:20:12.504Z,21.62
2022-10-18T11:22:43.467Z,21.69
2022-10-18T11:25:15.997Z,21.19
2022-10-18T11:28:03.864Z,21.26
2022-10-18T11:31:07.601Z,21.41
2022-10-18T11:34:12.857Z,21.60
2022-10-18T11:36:56.055Z,21.40
2022-10-18T11:39:33.312Z,21.65
2022-10-18T11:42:58.804Z,21.55
2022-10-18T11:46:01.860Z,21.59
2022-10-18T11:48:54.863Z,21.74
2022-10-18T11:51:56.316Z,21.86
2022-10-18T11:54:54.216Z,21.98
2022-10-18T11:57:43.719Z,22.03
2022-10-18T12:00:23.622Z,22.19
2022-10-18T12:03:18.085Z,22.45
2022-10-18T12:05:47.476Z,22.46
2022-10-18T12:08:20.277Z,21.99
2022-10-18T12:11:06.717Z,22.24
2022-10-18T12:13:51.542Z,22.44
2022-10-18T12:16:38.832Z,22.41
2022-10-18T12:19:23.352Z,22.25
2022-10-18T12:21:57.029Z,22.01
2022-10-18T12:24:28.123Z,22.20
2022-10-18T12:26:59.751Z,22.50
2022-10-18T12:29:45.478Z,22.42
2022-10-18T12:32:19.708Z,22.05
2022-10-18T12:34:58.334Z,22.24
2022-10-18T12:37:32.378Z,22.17
2022-10-18T12:40:25.997Z,22.50
2022-10-18T12:42:53.656Z,22.66
2022-10-18T12:45:33.063Z,22.62
2022-10-18T12:48:02.896Z,22.72
2022-10-18T12:50:42.448Z,22.62
2022-10-18T12:53:09.974Z,22.57
2022-10-18T12:58:34.743Z,22.57
2022-10-18T13:01:05.024Z,22.21
2022-10-18T13:03:55.907Z,22.31
2022-10-18T13:06:24.207Z,22.05
2022-10-18T13:09:18.778Z,21.93
2022-10-18T13:11:46.780Z,22.29
2022-10-18T13:14:23.935Z,21.93
2022-10-18T13:17:02.769Z,21.88
2022-10-18T13:19:44.682Z,21.88
2022-10-18T13:22:37.059Z,22.02
2022-10-18T13:25:23.177Z,22.25
2022-10-18T13:28:39.164Z,22.01
2022-10-18T13:31:36.088Z,21.92
2022-10-18T13:34:36.525Z,22.00
2022-10-18T13:37:10.085Z,22.29
2022-10-18T13:39:39.856Z,21.91
2022-10-18T13:42:19.675Z,22.01
2022-10-18T13:44:47.681Z,22.07
2022-10-18T13:47:22.582Z,22.02
2022-10-18T13:50:10.478Z,21.40
2022-10-18T13:52:44.772Z,20.96
2022-10-18T13:55:57.548Z,21.21
2022-10-18T13:58:48.924Z,21.43
2022-10-18T14:01:27.381Z,21.35
2022-10-18T14:03:58.302Z,21.13
2022-10-18T14:06:35.517Z,21.22
2022-10-18T14:09:25.548Z,21.05
2022-10-18T14:12:08.289Z,20.98
2022-10-18T14:14:47.803Z,20.89
2022-10-18T14:17:36.851Z,21.11
2022-10-18T14:20:27.334Z,21.09
2022-10-18T14:23:16.851Z,20.65
2022-10-18T14:25:46.778Z,20.79
2022-10-18T14:28:14.203Z,20.63
2022-10-18T14:30:59.128Z,20.64
2022-10-18T14:33:50.155Z,20.58
2022-10-18T14:36:19.258Z,20.41
2022-10-18T14:38:56.999Z,20.26
2022-10-18T14:41:29.734Z,20.42
2022-10-18T14:44:15.979Z,20.27
2022-10-18T14:46:46.707Z,20.29
2022-10-18T14:49:15.266Z,20.27
2022-10-18T14:51:44.541Z,20.22
2022-10-18T14:54:20.485Z,20.06
2022-10-18T14:56:48.633Z,20.09
2022-10-18T14:59:19.316Z,19.99
2022-10-18T15:02:03.341Z,19.82
2022-10-18T15:04:31.521Z,19.81
2022-10-18T15:07:04.580Z,19.84
2022-10-18T15:09:35.075Z,19.69
2022-10-18T15:12:05.166Z,19.65
2022-10-18T15:14:36.764Z,19.56
2022-10-18T15:17:15.208Z,19.59
2022-10-18T15:20:00.532Z,19.35
2022-10-18T15:22:33.210Z,19.18
2022-10-18T15:25:04.426Z,19.10
2022-10-18T15:27:35.497Z,18.92
2022-10-18T15:30:37.688Z,18.87
2022-10-18T15:33:05.678Z,18.83
2022-10-18T15:35:35.463Z,18.58
2022-10-18T15:38:24.539Z,18.54
2022-10-18T15:40:52.655Z,18.23
2022-10-18T15:43:23.273Z,17.99
2022-10-18T15:46:13.638Z,17.84
2022-10-18T15:48:41.882Z,17.65
2022-10-18T15:51:47.068Z,17.38
2022-10-18T15:54:19.584Z,17.22
2022-10-18T15:56:47.220Z,16.96
2022-10-18T15:59:26.530Z,16.82
2022-10-18T16:01:56.768Z,16.62
2022-10-18T16:04:32.407Z,16.40
2022-10-18T16:07:00.390Z,16.19
2022-10-18T16:09:29.258Z,16.11
2022-10-18T16:11:57.575Z,16.19
2022-10-18T16:14:26.886Z,15.80
2022-10-18T16:17:02.565Z,15.53
2022-10-18T16:19:31.373Z,15.68
2022-10-18T16:22:05.154Z,15.36
2022-10-18T16:24:34.109Z,15.13
2022-10-18T16:27:02.069Z,15.08
2022-10-18T16:29:31.063Z,14.95
2022-10-18T16:32:00.554Z,14.83
2022-10-18T16:34:28.702Z,14.78
2022-10-18T16:36:56.254Z,14.44
2022-10-18T16:39:24.265Z,14.34
2022-10-18T16:41:52.328Z,14.48
2022-10-18T16:44:20.027Z,14.41
2022-10-18T16:46:51.070Z,14.29
2022-10-18T16:49:25.702Z,14.22
2022-10-18T16:51:54.027Z,14.24
2022-10-18T16:54:22.343Z,14.21
2022-10-18T16:56:50.120Z,14.18
2022-10-18T16:59:23.367Z,13.95
2022-10-18T17:01:51.365Z,13.94
2022-10-18T17:04:18.991Z,13.96
2022-10-18T17:06:46.622Z,14.14
2022-10-18T17:09:15.385Z,14.06
2022-10-18T17:11:43.340Z,14.00
2022-10-18T17:14:10.952Z,13.99
2022-10-18T17:16:52.323Z,14.03
2022-10-18T17:19:23.635Z,13.56
2022-10-18T17:21:51.733Z,13.52
2022-10-18T17:24:21.442Z,13.31
2022-10-18T17:26:49.041Z,13.45
2022-10-18T17:29:17.174Z,13.34
2022-10-18T17:31:46.994Z,13.36
2022-10-18T17:34:17.586Z,13.21
2022-10-18T17:36:49.146Z,13.08
2022-10-18T17:39:19.618Z,13.01
2022-10-18T17:41:47.185Z,13.03
2022-10-18T17:44:15.257Z,12.95
2022-10-18T17:46:42.925Z,13.05
2022-10-18T17:49:10.812Z,13.21
2022-10-18T17:51:39.125Z,13.24
2022-10-18T17:54:08.151Z,13.25
2022-10-18T17:56:36.230Z,13.26
2022-10-18T17:59:04.955Z,13.08
2022-10-18T18:01:32.765Z,13.10
2022-10-18T18:04:01.989Z,13.00
2022-10-18T18:06:35.463Z,12.87
2022-10-18T18:09:10.631Z,12.74
2022-10-18T18:11:40.121Z,12.72
2022-10-18T18:14:08.053Z,12.63
2022-10-18T18:16:37.911Z,12.49
2022-10-18T18:19:09.524Z,12.40
2022-10-18T18:21:38.617Z,12.40
2022-10-18T18:24:06.481Z,12.27
2022-10-18T18:26:35.111Z,12.33
2022-10-18T18:31:39.980Z,12.36
2022-10-18T18:34:10.092Z,12.38
2022-10-18T18:36:38.139Z,12.20
2022-10-18T18:39:06.291Z,12.13
2022-10-18T18:41:35.817Z,12.21
2022-10-18T18:44:05.120Z,12.17
2022-10-18T18:46:34.894Z,12.15
2022-10-18T18:49:03.999Z,12.16
2022-10-18T18:51:33.056Z,12.14
2022-10-18T18:54:00.773Z,12.24
2022-10-18T18:56:31.686Z,12.17
2022-10-18T18:58:59.990Z,12.07
2022-10-18T19:01:30.702Z,12.10
2022-10-18T19:03:59.520Z,12.05
2022-10-18T19:06:30.497Z,11.92
2022-10-18T19:08:59.190Z,12.04
2022-10-18T19:11:32.536Z,11.86
2022-10-18T19:14:01.228Z,11.82
2022-10-18T19:16:30.802Z,11.84
2022-10-18T19:19:08.290Z,11.92
2022-10-18T19:21:43.123Z,11.80
2022-10-18T19:24:11.824Z,11.80
2022-10-18T19:26:45.854Z,11.79
2022-10-18T19:29:14.091Z,11.68
2022-10-18T19:31:42.645Z,11.72
2022-10-18T19:34:12.470Z,11.79
2022-10-18T19:36:41.765Z,11.83
2022-10-18T19:39:14.704Z,11.58
2022-10-18T19:41:42.433Z,11.64
2022-10-18T19:44:10.352Z,11.63
2022-10-18T19:46:38.579Z,11.63
2022-10-18T19:49:06.786Z,11.49
2022-10-18T19:51:34.939Z,11.58
2022-10-18T19:54:02.513Z,11.45
2022-10-18T19:56:30.736Z,11.59
2022-10-18T19:58:59.130Z,11.53
2022-10-18T20:01:30.789Z,11.29
2022-10-18T20:03:58.808Z,11.49
2022-10-18T20:06:27.051Z,11.41
2022-10-18T20:08:55.243Z,11.30
2022-10-18T20:11:25.257Z,11.24
2022-10-18T20:13:52.963Z,11.31
2022-10-18T20:16:27.709Z,11.30
2022-10-18T20:18:58.049Z,11.23
2022-10-18T20:21:26.906Z,11.24
2022-10-18T20:23:54.643Z,11.24
2022-10-18T20:26:23.196Z,11.24
2022-10-18T20:28:52.602Z,11.15
2022-10-18T20:31:20.339Z,11.22
2022-10-18T20:33:54.248Z,11.19
2022-10-18T20:36:21.889Z,11.17
2022-10-18T20:38:50.001Z,11.10
2022-10-18T20:41:28.720Z,10.99
2022-10-18T20:43:58.645Z,10.99
2022-10-18T20:46:30.350Z,10.93
2022-10-18T20:49:00.386Z,10.94
2022-10-18T20:51:28.792Z,10.86
2022-10-18T20:53:57.048Z,11.01
2022-10-18T20:56:26.971Z,11.03
2022-10-18T20:58:56.433Z,10.92
2022-10-18T21:01:28.043Z,10.97
2022-10-18T21:04:09.644Z,10.95
2022-10-18T21:06:39.719Z,10.92
2022-10-18T21:09:15.955Z,11.07
2022-10-18T21:11:46.059Z,10.90
2022-10-18T21:14:16.213Z,10.89
2022-10-18T21:16:44.033Z,10.85
2022-10-18T21:19:29.616Z,10.75
2022-10-18T21:21:57.945Z,10.61
2022-10-18T21:24:26.360Z,10.69
2022-10-18T21:26:53.894Z,10.73
2022-10-18T21:29:22.963Z,10.64
2022-10-18T21:31:54.728Z,10.75
2022-10-18T21:34:22.705Z,10.65
2022-10-18T21:36:50.745Z,10.77
2022-10-18T21:39:21.880Z,10.80
2022-10-18T21:41:50.047Z,10.59
2022-10-18T21:44:18.155Z,10.52
2022-10-18T21:46:46.049Z,10.56
2022-10-18T21:49:14.897Z,10.65
2022-10-18T21:51:42.890Z,10.76
2022-10-18T21:54:15.463Z,10.57
2022-10-18T21:56:43.590Z,10.44
2022-10-18T21:59:12.705Z,10.49
2022-10-18T22:01:40.739Z,10.46
2022-10-18T22:04:18.544Z,10.42
2022-10-18T22:06:46.727Z,10.57
2022-10-18T22:09:14.613Z,10.45
2022-10-18T22:11:49.892Z,10.43
2022-10-18T22:14:17.965Z,10.43
2022-10-18T22:16:45.606Z,10.40
2022-10-18T22:19:13.553Z,10.50
2022-10-18T22:21:41.491Z,10.50
2022-10-18T22:24:09.919Z,10.53
2022-10-18T22:26:39.945Z,10.41
2022-10-18T22:29:16.166Z,10.49
2022-10-18T22:31:47.223Z,10.51
2022-10-18T22:34:16.531Z,10.51
2022-10-18T22:36:44.617Z,10.48
2022-10-18T22:39:12.896Z,10.42
2022-10-18T22:41:41.502Z,10.61
2022-10-18T22:44:11.540Z,10.77
2022-10-18T22:46:39.853Z,10.65
2022-10-18T22:49:07.924Z,10.74
2022-10-18T22:54:09.087Z,10.87
2022-10-18T22:56:36.789Z,10.85
2022-10-18T22:59:04.447Z,10.89
2022-10-18T23:01:32.293Z,10.98
2022-10-18T23:04:00.574Z,10.92
2022-10-18T23:06:33.201Z,10.98
2022-10-18T23:09:04.461Z,11.13
2022-10-18T23:11:32.178Z,11.02
2022-10-18T23:13:59.982Z,11.11
2022-10-18T23:16:28.064Z,11.06
2022-10-18T23:18:56.874Z,11.10
2022-10-18T23:21:26.229Z,11.08
2022-10-18T23:23:54.319Z,11.12
2022-10-18T23:26:24.316Z,11.13
2022-10-18T23:28:53.687Z,11.07
2022-10-18T23:31:21.555Z,11.04
2022-10-18T23:33:51.237Z,11.10
2022-10-18T23:36:20.947Z,11.10
2022-10-18T23:38:49.264Z,11.16
2022-10-18T23:41:17.640Z,11.29
2022-10-18T23:43:45.789Z,11.26
2022-10-18T23:46:15.014Z,11.21
2022-10-18T23:48:43.025Z,11.24
2022-10-18T23:51:11.563Z,11.26
2022-10-18T23:53:39.722Z,11.28
2022-10-18T23:56:10.149Z,11.30
2022-10-18T23:58:38.576Z,11.40
